nws-alerts: Checking more than four warning/county codes can delay the loading of your pages. You should use a cron job to get the data.
EllijayWeather Station Historical Data
Daily Summary for July 16, 2019 Units:  English    Metric   Both
Daily Weekly Monthly Yearly Custom
  High: Low: Average:
Temperature: 88.2 °F 66.6 °F 76.8 °F
Dew Point: 75.2 °F 65.7 °F 69.9 °F
Humidity: 98% 50% 82%
Wind Speed: 4.9mph 0mph 0.1mph
Wind Gust: 5mph - -
Wind- - SSE
Pressure: 30.16 in 30.05 in -
Precipitation: 0 in    
Historical Graphs
 
 
Tabular Data for July 16, 2019
Time Temperature Dew Point Pressure Wind Wind Speed Wind Gust Humidity Rainfall Rate (Hourly) solar
00:04 72.1 °F 70.7 °F 30.13 in Calm     95% 0 in meteobridge W/m2
00:09 72.1 °F 70.7 °F 30.12 in Calm     95% 0 in meteobridge W/m2
00:14 72 °F 70.5 °F 30.12 in Calm     95% 0 in meteobridge W/m2
00:19 71.8 °F 70.3 °F 30.13 in Calm     95% 0 in meteobridge W/m2
00:24 71.8 °F 70.3 °F 30.13 in Calm     95% 0 in meteobridge W/m2
00:29 71.4 °F 70 °F 30.13 in Calm     95% 0 in meteobridge W/m2
00:34 71.4 °F 70 °F 30.13 in Calm     95% 0 in meteobridge W/m2
00:39 71.2 °F 70 °F 30.13 in Calm     96% 0 in meteobridge W/m2
00:44 71.2 °F 69.8 °F 30.13 in Calm     95% 0 in meteobridge W/m2
00:49 71.2 °F 69.8 °F 30.13 in Calm     95% 0 in meteobridge W/m2
00:54 71.1 °F 69.8 °F 30.13 in Calm     96% 0 in meteobridge W/m2
00:59 71.1 °F 69.8 °F 30.13 in Calm     96% 0 in meteobridge W/m2
01:04 71.1 °F 69.8 °F 30.12 in Calm     96% 0 in meteobridge W/m2
01:09 70.9 °F 69.6 °F 30.12 in Calm     96% 0 in meteobridge W/m2
01:14 70.9 °F 69.6 °F 30.12 in Calm     96% 0 in meteobridge W/m2
01:19 70.7 °F 69.4 °F 30.12 in Calm     96% 0 in meteobridge W/m2
01:24 70.5 °F 69.3 °F 30.13 in Calm     96% 0 in meteobridge W/m2
01:29 70.5 °F 69.3 °F 30.12 in Calm     96% 0 in meteobridge W/m2
01:34 70.5 °F 69.3 °F 30.13 in Calm     96% 0 in meteobridge W/m2
01:39 70.3 °F 69.1 °F 30.13 in Calm     96% 0 in meteobridge W/m2
01:44 70.2 °F 68.9 °F 30.13 in Calm     96% 0 in meteobridge W/m2
01:49 70.2 °F 68.9 °F 30.13 in Calm     96% 0 in meteobridge W/m2
01:54 70.2 °F 68.9 °F 30.13 in Calm     96% 0 in meteobridge W/m2
01:59 70 °F 68.7 °F 30.12 in Calm     96% 0 in meteobridge W/m2
02:04 70 °F 68.7 °F 30.12 in Calm     96% 0 in meteobridge W/m2
02:09 70 °F 68.7 °F 30.12 in Calm     96% 0 in meteobridge W/m2
02:14 69.8 °F 68.5 °F 30.12 in Calm     96% 0 in meteobridge W/m2
02:19 69.6 °F 68.4 °F 30.12 in Calm     96% 0 in meteobridge W/m2
02:24 69.6 °F 68.4 °F 30.12 in Calm     96% 0 in meteobridge W/m2
02:29 69.4 °F 68.2 °F 30.12 in Calm     96% 0 in meteobridge W/m2
02:34 69.4 °F 68.2 °F 30.12 in Calm     96% 0 in meteobridge W/m2
02:39 69.3 °F 68 °F 30.12 in Calm     96% 0 in meteobridge W/m2
02:44 69.3 °F 68 °F 30.11 in Calm     96% 0 in meteobridge W/m2
02:49 69.1 °F 67.8 °F 30.11 in Calm     96% 0 in meteobridge W/m2
02:54 69.1 °F 67.8 °F 30.11 in Calm     96% 0 in meteobridge W/m2
02:59 69.1 °F 67.8 °F 30.11 in Calm     96% 0 in meteobridge W/m2
03:04 68.9 °F 67.6 °F 30.11 in Calm     96% 0 in meteobridge W/m2
03:09 68.9 °F 67.6 °F 30.11 in Calm     96% 0 in meteobridge W/m2
03:14 68.7 °F 67.5 °F 30.11 in Calm     96% 0 in meteobridge W/m2
03:19 68.7 °F 67.5 °F 30.11 in Calm     96% 0 in meteobridge W/m2
03:24 68.7 °F 67.5 °F 30.11 in Calm     96% 0 in meteobridge W/m2
03:29 68.5 °F 67.3 °F 30.11 in Calm     96% 0 in meteobridge W/m2
03:34 68.5 °F 67.3 °F 30.11 in Calm     96% 0 in meteobridge W/m2
03:39 68.5 °F 67.3 °F 30.11 in Calm     96% 0 in meteobridge W/m2
03:44 68.5 °F 67.3 °F 30.11 in Calm     96% 0 in meteobridge W/m2
03:49 68.4 °F 67.1 °F 30.11 in Calm     96% 0 in meteobridge W/m2
03:54 68.2 °F 66.9 °F 30.11 in Calm     96% 0 in meteobridge W/m2
03:59 68.2 °F 66.9 °F 30.11 in Calm     96% 0 in meteobridge W/m2
04:04 68.2 °F 66.9 °F 30.11 in Calm     96% 0 in meteobridge W/m2
04:09 68 °F 66.7 °F 30.11 in Calm     96% 0 in meteobridge W/m2
04:14 67.8 °F 66.6 °F 30.11 in Calm     96% 0 in meteobridge W/m2
04:19 67.8 °F 66.6 °F 30.11 in Calm     96% 0 in meteobridge W/m2
04:24 67.8 °F 66.6 °F 30.11 in Calm     96% 0 in meteobridge W/m2
04:29 67.6 °F 66.7 °F 30.11 in Calm     97% 0 in meteobridge W/m2
04:34 67.6 °F 66.7 °F 30.11 in Calm     97% 0 in meteobridge W/m2
04:39 67.6 °F 66.7 °F 30.11 in Calm     97% 0 in meteobridge W/m2
04:44 67.6 °F 66.7 °F 30.11 in Calm     97% 0 in meteobridge W/m2
04:49 67.5 °F 66.6 °F 30.11 in Calm     97% 0 in meteobridge W/m2
04:54 67.5 °F 66.6 °F 30.11 in Calm     97% 0 in meteobridge W/m2
04:59 67.5 °F 66.6 °F 30.11 in Calm     97% 0 in meteobridge W/m2
05:04 67.5 °F 66.6 °F 30.12 in Calm     97% 0 in meteobridge W/m2
05:09 67.5 °F 66.6 °F 30.12 in Calm     97% 0 in meteobridge W/m2
05:14 67.3 °F 66.4 °F 30.12 in Calm     97% 0 in meteobridge W/m2
05:19 67.3 °F 66.4 °F 30.12 in Calm     97% 0 in meteobridge W/m2
05:24 67.5 °F 66.6 °F 30.12 in Calm     97% 0 in meteobridge W/m2
05:29 67.3 °F 66.4 °F 30.12 in Calm     97% 0 in meteobridge W/m2
05:34 67.3 °F 66.4 °F 30.13 in Calm     97% 0 in meteobridge W/m2
05:39 67.1 °F 66.2 °F 30.12 in Calm     97% 0 in meteobridge W/m2
05:44 67.3 °F 66.4 °F 30.13 in Calm     97% 0 in meteobridge W/m2
05:49 67.1 °F 66.2 °F 30.13 in Calm     97% 0 in meteobridge W/m2
05:54 66.9 °F 66 °F 30.13 in Calm     97% 0 in meteobridge W/m2
05:59 66.9 °F 66 °F 30.13 in Calm     97% 0 in meteobridge W/m2
06:04 66.9 °F 66 °F 30.14 in Calm     97% 0 in meteobridge W/m2
06:09 66.7 °F 65.8 °F 30.14 in Calm     97% 0 in meteobridge W/m2
06:14 66.7 °F 65.8 °F 30.14 in Calm     97% 0 in meteobridge W/m2
06:19 66.7 °F 65.8 °F 30.14 in Calm     97% 0 in meteobridge W/m2
06:24 66.7 °F 65.8 °F 30.14 in Calm     97% 0 in meteobridge W/m2
06:29 66.6 °F 65.7 °F 30.14 in Calm     97% 0 in meteobridge W/m2
06:34 66.7 °F 65.8 °F 30.14 in Calm     97% 0 in meteobridge W/m2
06:39 66.6 °F 65.7 °F 30.14 in Calm     97% 0 in meteobridge W/m2
06:44 66.6 °F 65.7 °F 30.14 in Calm     97% 0 in meteobridge W/m2
06:49 66.6 °F 65.7 °F 30.14 in Calm     97% 0 in meteobridge W/m2
06:54 66.6 °F 65.7 °F 30.14 in Calm     97% 0 in meteobridge W/m2
06:59 66.6 °F 65.7 °F 30.15 in Calm     97% 0 in meteobridge W/m2
07:04 66.6 °F 65.7 °F 30.14 in Calm     97% 0 in meteobridge W/m2
07:09 66.6 °F 65.7 °F 30.14 in Calm     97% 0 in meteobridge W/m2
07:14 66.6 °F 65.7 °F 30.14 in Calm     97% 0 in meteobridge W/m2
07:19 66.6 °F 65.7 °F 30.14 in Calm     97% 0 in meteobridge W/m2
07:24 66.6 °F 65.7 °F 30.15 in Calm     97% 0 in meteobridge W/m2
07:29 66.7 °F 66.2 °F 30.15 in Calm     98% 0 in meteobridge W/m2
07:34 66.7 °F 66.2 °F 30.15 in Calm     98% 0 in meteobridge W/m2
07:38 66.7 °F 66.2 °F 30.15 in Calm     98% 0 in meteobridge W/m2
07:44 66.9 °F 66.4 °F 30.15 in Calm     98% 0 in meteobridge W/m2
07:49 67.1 °F 66.6 °F 30.16 in Calm     98% 0 in meteobridge W/m2
07:54 67.3 °F 66.7 °F 30.16 in Calm     98% 0 in meteobridge W/m2
07:59 67.5 °F 66.9 °F 30.16 in Calm     98% 0 in meteobridge W/m2
08:04 67.6 °F 67.1 °F 30.16 in Calm     98% 0 in meteobridge W/m2
08:09 67.8 °F 67.3 °F 30.16 in Calm     98% 0 in meteobridge W/m2
08:14 68 °F 67.5 °F 30.16 in Calm     98% 0 in meteobridge W/m2
08:19 68.2 °F 67.6 °F 30.16 in Calm     98% 0 in meteobridge W/m2
08:24 68.4 °F 67.8 °F 30.16 in Calm     98% 0 in meteobridge W/m2
08:29 68.7 °F 68.2 °F 30.16 in Calm     98% 0 in meteobridge W/m2
08:34 68.9 °F 68.4 °F 30.16 in Calm     98% 0 in meteobridge W/m2
08:39 69.3 °F 68.7 °F 30.16 in Calm     98% 0 in meteobridge W/m2
08:44 69.4 °F 68.9 °F 30.16 in Calm     98% 0 in meteobridge W/m2
08:49 70 °F 69.4 °F 30.16 in Calm     98% 0 in meteobridge W/m2
08:54 70.2 °F 69.6 °F 30.16 in Calm     98% 0 in meteobridge W/m2
08:59 70.5 °F 70 °F 30.16 in Calm     98% 0 in meteobridge W/m2
09:04 71.2 °F 70.3 °F 30.16 in Calm     97% 0 in meteobridge W/m2
09:09 71.4 °F 70.5 °F 30.16 in Calm     97% 0 in meteobridge W/m2
09:14 72.1 °F 70.9 °F 30.16 in Calm     96% 0 in meteobridge W/m2
09:19 72.7 °F 71.4 °F 30.16 in Calm     96% 0 in meteobridge W/m2
09:24 73.2 °F 71.1 °F 30.16 in Calm     93% 0 in meteobridge W/m2
09:29 73.8 °F 72 °F 30.16 in Calm     94% 0 in meteobridge W/m2
09:34 74.5 °F 72.3 °F 30.16 in Calm     93% 0 in meteobridge W/m2
09:39 74.8 °F 72.7 °F 30.16 in Calm     93% 0 in meteobridge W/m2
09:44 75.2 °F 73 °F 30.16 in Calm     93% 0 in meteobridge W/m2
09:49 75.7 °F 73.6 °F 30.16 in Calm     93% 0 in meteobridge W/m2
09:54 75.9 °F 73.4 °F 30.16 in Calm     92% 0 in meteobridge W/m2
09:59 76.3 °F 73 °F 30.16 in Calm     90% 0 in meteobridge W/m2
10:04 76.5 °F 73.6 °F 30.16 in Calm     91% 0 in meteobridge W/m2
10:09 76.8 °F 74.3 °F 30.16 in Calm     92% 0 in meteobridge W/m2
10:14 77 °F 74.1 °F 30.16 in Calm     91% 0 in meteobridge W/m2
10:19 77.4 °F 74.5 °F 30.16 in Calm     91% 0 in meteobridge W/m2
10:24 77.5 °F 73.8 °F 30.16 in Calm     88% 0 in meteobridge W/m2
10:29 77.9 °F 74.1 °F 30.16 in Calm     88% 0 in meteobridge W/m2
10:34 78.1 °F 73.9 °F 30.16 in Calm     87% 0 in meteobridge W/m2
10:39 78.4 °F 73.9 °F 30.16 in Calm     86% 0 in meteobridge W/m2
10:44 78.4 °F 74.3 °F 30.16 in Calm     87% 0 in meteobridge W/m2
10:49 78.8 °F 74.3 °F 30.16 in Calm     86% 0 in meteobridge W/m2
10:54 79.2 °F 74.3 °F 30.16 in Calm     85% 0 in meteobridge W/m2
10:59 79.5 °F 74.3 °F 30.16 in Calm     84% 0 in meteobridge W/m2
11:04 79.7 °F 74.1 °F 30.16 in Calm     83% 0 in meteobridge W/m2
11:09 80.1 °F 74.8 °F 30.16 in Calm   4 mph 84% 0 in meteobridge W/m2
11:14 80.2 °F 73.9 °F 30.16 in NW 2 mph 2 mph 81% 0 in meteobridge W/m2
11:19 80.6 °F 73.9 °F 30.16 in Calm     80% 0 in meteobridge W/m2
11:24 81 °F 74.1 °F 30.16 in Calm   1 mph 80% 0 in meteobridge W/m2
11:29 81.5 °F 73.9 °F 30.16 in Calm   4 mph 78% 0 in meteobridge W/m2
11:34 81.9 °F 73.6 °F 30.16 in Calm     76% 0 in meteobridge W/m2
11:39 82.2 °F 74.3 °F 30.16 in NNW 0.9 mph 1 mph 77% 0 in meteobridge W/m2
11:44 82.6 °F 74.7 °F 30.16 in WNW 0.9 mph 1 mph 77% 0 in meteobridge W/m2
11:49 82.9 °F 73 °F 30.16 in Calm   3 mph 72% 0 in meteobridge W/m2
11:54 83.1 °F 73.9 °F 30.16 in NNE 2.9 mph 3 mph 74% 0 in meteobridge W/m2
11:59 83.5 °F 73.9 °F 30.16 in Calm   4 mph 73% 0 in meteobridge W/m2
12:04 83.8 °F 74.7 °F 30.16 in Calm     74% 0 in meteobridge W/m2
12:09 84.4 °F 75.2 °F 30.15 in Calm     74% 0 in meteobridge W/m2
12:14 84.4 °F 73.6 °F 30.15 in Calm   1 mph 70% 0 in meteobridge W/m2
12:19 84.4 °F 73.6 °F 30.15 in Calm   4 mph 70% 0 in meteobridge W/m2
12:24 84.4 °F 73.9 °F 30.15 in Calm   3 mph 71% 0 in meteobridge W/m2
12:29 84.6 °F 73.8 °F 30.15 in Calm     70% 0 in meteobridge W/m2
12:34 84.4 °F 73.9 °F 30.15 in Calm   1 mph 71% 0 in meteobridge W/m2
12:39 84.6 °F 73.2 °F 30.15 in Calm   1 mph 69% 0 in meteobridge W/m2
12:44 84.9 °F 73.6 °F 30.15 in NNW 2.9 mph 4 mph 69% 0 in meteobridge W/m2
12:49 84.9 °F 73.6 °F 30.14 in Calm     69% 0 in meteobridge W/m2
12:54 84.9 °F 74.1 °F 30.14 in Calm   1 mph 70% 0 in meteobridge W/m2
12:59 84.9 °F 74.8 °F 30.14 in Calm     72% 0 in meteobridge W/m2
13:04 85.1 °F 73.8 °F 30.14 in Calm   4 mph 69% 0 in meteobridge W/m2
13:09 85.6 °F 74.3 °F 30.14 in ENE 2.9 mph 3 mph 69% 0 in meteobridge W/m2
13:14 86 °F 72 °F 30.14 in NW 2.9 mph 4 mph 63% 0 in meteobridge W/m2
13:19 86.4 °F 73.6 °F 30.14 in Calm   4 mph 66% 0 in meteobridge W/m2
13:24 86.7 °F 72.1 °F 30.14 in Calm   3 mph 62% 0 in meteobridge W/m2
13:29 87.1 °F 72.9 °F 30.14 in NNE 0.9 mph 1 mph 63% 0 in meteobridge W/m2
13:34 87.3 °F 73.6 °F 30.14 in Calm     64% 0 in meteobridge W/m2
13:39 87.3 °F 71.2 °F 30.14 in Calm   5 mph 59% 0 in meteobridge W/m2
13:44 87.3 °F 70.7 °F 30.14 in ENE 0.9 mph 4 mph 58% 0 in meteobridge W/m2
13:49 87.1 °F 70.5 °F 30.14 in Calm   4 mph 58% 0 in meteobridge W/m2
13:54 87.1 °F 70.5 °F 30.14 in East 4.9 mph 5 mph 58% 0 in meteobridge W/m2
13:59 86.9 °F 70.3 °F 30.14 in Calm   1 mph 58% 0 in meteobridge W/m2
14:04 87.1 °F 70 °F 30.14 in Calm   2 mph 57% 0 in meteobridge W/m2
14:09 87.4 °F 71.4 °F 30.14 in Calm   1 mph 59% 0 in meteobridge W/m2
14:14 87.3 °F 70.2 °F 30.13 in Calm   1 mph 57% 0 in meteobridge W/m2
14:19 87.1 °F 71.1 °F 30.13 in West 0.9 mph 1 mph 59% 0 in meteobridge W/m2
14:24 87.1 °F 70.5 °F 30.13 in Calm   2 mph 58% 0 in meteobridge W/m2
14:29 86.7 °F 70.7 °F 30.13 in Calm   1 mph 59% 0 in meteobridge W/m2
14:34 86.5 °F 68 °F 30.12 in Calm   1 mph 54% 0 in meteobridge W/m2
14:39 86.7 °F 67.5 °F 30.12 in Calm     53% 0 in meteobridge W/m2
14:44 86.7 °F 68 °F 30.12 in Calm     54% 0 in meteobridge W/m2
14:49 87.1 °F 68.9 °F 30.12 in Calm   2 mph 55% 0 in meteobridge W/m2
14:54 87.3 °F 67.5 °F 30.12 in Calm   2 mph 52% 0 in meteobridge W/m2
14:59 87.3 °F 68.5 °F 30.12 in Calm   1 mph 54% 0 in meteobridge W/m2
15:04 87.3 °F 67.5 °F 30.12 in Calm   1 mph 52% 0 in meteobridge W/m2
15:09 87.3 °F 66.4 °F 30.11 in Calm   1 mph 50% 0 in meteobridge W/m2
15:14 87.4 °F 67.6 °F 30.11 in Calm     52% 0 in meteobridge W/m2
15:19 87.6 °F 70 °F 30.11 in Calm     56% 0 in meteobridge W/m2
15:24 87.8 °F 68 °F 30.11 in Calm   1 mph 52% 0 in meteobridge W/m2
15:29 88.2 °F 68.9 °F 30.11 in Calm   2 mph 53% 0 in meteobridge W/m2
15:34 88.2 °F 68.4 °F 30.11 in East 0.9 mph 1 mph 52% 0 in meteobridge W/m2
15:39 88.2 °F 69.4 °F 30.11 in Calm   2 mph 54% 0 in meteobridge W/m2
15:44 88.2 °F 69.4 °F 30.11 in Calm   3 mph 54% 0 in meteobridge W/m2
15:49 88 °F 68.7 °F 30.10 in Calm   2 mph 53% 0 in meteobridge W/m2
15:54 87.8 °F 67.5 °F 30.10 in Calm   2 mph 51% 0 in meteobridge W/m2
15:59 87.8 °F 68.5 °F 30.10 in Calm   1 mph 53% 0 in meteobridge W/m2
16:04 87.8 °F 69.1 °F 30.10 in NE 0.9 mph 1 mph 54% 0 in meteobridge W/m2
16:09 88 °F 68.7 °F 30.10 in Calm   1 mph 53% 0 in meteobridge W/m2
16:14 88 °F 69.8 °F 30.10 in Calm   1 mph 55% 0 in meteobridge W/m2
16:19 87.4 °F 68.7 °F 30.10 in Calm   4 mph 54% 0 in meteobridge W/m2
16:24 87.1 °F 68.9 °F 30.10 in Calm   1 mph 55% 0 in meteobridge W/m2
16:29 87.1 °F 68.9 °F 30.09 in Calm   1 mph 55% 0 in meteobridge W/m2
16:34 87.3 °F 69.1 °F 30.09 in Calm     55% 0 in meteobridge W/m2
16:39 87.3 °F 69.1 °F 30.09 in Calm     55% 0 in meteobridge W/m2
16:44 87.4 °F 68.7 °F 30.09 in Calm   2 mph 54% 0 in meteobridge W/m2
16:49 87.4 °F 68.7 °F 30.09 in Calm   1 mph 54% 0 in meteobridge W/m2
16:54 87.6 °F 68.4 °F 30.09 in Calm   1 mph 53% 0 in meteobridge W/m2
16:59 87.4 °F 68.7 °F 30.09 in Calm   1 mph 54% 0 in meteobridge W/m2
17:04 87.3 °F 69.6 °F 30.08 in Calm     56% 0 in meteobridge W/m2
17:09 87.3 °F 69.6 °F 30.09 in Calm   1 mph 56% 0 in meteobridge W/m2
17:14 87.3 °F 69.1 °F 30.08 in Calm     55% 0 in meteobridge W/m2
17:19 87.1 °F 70 °F 30.08 in NNE 2 mph 2 mph 57% 0 in meteobridge W/m2
17:24 86.9 °F 70.9 °F 30.08 in Calm   2 mph 59% 0 in meteobridge W/m2
17:29 86.9 °F 72.3 °F 30.08 in Calm     62% 0 in meteobridge W/m2
17:34 87.3 °F 71.2 °F 30.07 in Calm   1 mph 59% 0 in meteobridge W/m2
17:39 87.3 °F 72.1 °F 30.07 in Calm     61% 0 in meteobridge W/m2
17:44 87.3 °F 70.7 °F 30.07 in Calm     58% 0 in meteobridge W/m2
17:49 87.3 °F 69.1 °F 30.07 in East 0.9 mph 1 mph 55% 0 in meteobridge W/m2
17:54 87.3 °F 69.6 °F 30.06 in Calm     56% 0 in meteobridge W/m2
17:59 87.1 °F 70 °F 30.06 in Calm     57% 0 in meteobridge W/m2
18:04 87.1 °F 70 °F 30.06 in Calm   2 mph 57% 0 in meteobridge W/m2
18:09 87.1 °F 69.4 °F 30.06 in Calm     56% 0 in meteobridge W/m2
18:14 86.9 °F 70.9 °F 30.06 in Calm   1 mph 59% 0 in meteobridge W/m2
18:19 86.7 °F 71.6 °F 30.06 in Calm     61% 0 in meteobridge W/m2
18:24 86.4 °F 70.3 °F 30.06 in Calm   1 mph 59% 0 in meteobridge W/m2
18:29 86.2 °F 70.7 °F 30.06 in Calm     60% 0 in meteobridge W/m2
18:34 86.2 °F 70.2 °F 30.06 in Calm     59% 0 in meteobridge W/m2
18:39 85.8 °F 69.8 °F 30.06 in Calm     59% 0 in meteobridge W/m2
18:44 85.8 °F 70.3 °F 30.06 in Calm     60% 0 in meteobridge W/m2
18:49 85.6 °F 70.2 °F 30.06 in Calm     60% 0 in meteobridge W/m2
18:54 85.5 °F 71.4 °F 30.06 in Calm     63% 0 in meteobridge W/m2
18:59 85.1 °F 70.2 °F 30.06 in Calm     61% 0 in meteobridge W/m2
19:04 84.9 °F 72.3 °F 30.06 in Calm     66% 0 in meteobridge W/m2
19:09 84.7 °F 73 °F 30.06 in Calm     68% 0 in meteobridge W/m2
19:14 84.4 °F 71.2 °F 30.05 in Calm     65% 0 in meteobridge W/m2
19:19 84 °F 71.1 °F 30.05 in Calm     65% 0 in meteobridge W/m2
19:24 83.8 °F 71.2 °F 30.06 in Calm     66% 0 in meteobridge W/m2
19:29 83.7 °F 72 °F 30.06 in Calm     68% 0 in meteobridge W/m2
19:34 83.3 °F 72.5 °F 30.06 in Calm     70% 0 in meteobridge W/m2
19:39 82.9 °F 72.5 °F 30.06 in Calm     71% 0 in meteobridge W/m2
19:44 82.6 °F 71.8 °F 30.06 in Calm     70% 0 in meteobridge W/m2
19:49 82.2 °F 72.3 °F 30.06 in Calm     72% 0 in meteobridge W/m2
19:54 82 °F 72.1 °F 30.06 in Calm     72% 0 in meteobridge W/m2
19:59 81.7 °F 72.1 °F 30.06 in Calm     73% 0 in meteobridge W/m2
20:04 81.3 °F 72.3 °F 30.06 in Calm     74% 0 in meteobridge W/m2
20:09 81.1 °F 72.9 °F 30.06 in Calm     76% 0 in meteobridge W/m2
20:14 80.8 °F 72.5 °F 30.06 in Calm     76% 0 in meteobridge W/m2
20:19 80.6 °F 72.7 °F 30.06 in Calm     77% 0 in meteobridge W/m2
20:24 80.2 °F 72.7 °F 30.06 in Calm     78% 0 in meteobridge W/m2
20:29 79.9 °F 72.3 °F 30.07 in Calm     78% 0 in meteobridge W/m2
20:34 79.3 °F 72.3 °F 30.07 in Calm     79% 0 in meteobridge W/m2
20:39 79.2 °F 72.5 °F 30.07 in Calm     80% 0 in meteobridge W/m2
20:44 79 °F 72.7 °F 30.07 in Calm     81% 0 in meteobridge W/m2
20:49 78.4 °F 72.1 °F 30.07 in Calm     81% 0 in meteobridge W/m2
20:54 78.3 °F 72.3 °F 30.08 in Calm     82% 0 in meteobridge W/m2
20:59 77.9 °F 72 °F 30.08 in Calm     82% 0 in meteobridge W/m2
21:04 77.5 °F 72 °F 30.08 in Calm     83% 0 in meteobridge W/m2
21:09 77.4 °F 71.8 °F 30.08 in Calm     83% 0 in meteobridge W/m2
21:14 77.2 °F 72 °F 30.08 in Calm     84% 0 in meteobridge W/m2
21:19 76.8 °F 72 °F 30.08 in Calm     85% 0 in meteobridge W/m2
21:24 76.5 °F 71.6 °F 30.09 in Calm     85% 0 in meteobridge W/m2
21:29 76.3 °F 71.8 °F 30.09 in Calm     86% 0 in meteobridge W/m2
21:34 76.1 °F 71.6 °F 30.09 in Calm     86% 0 in meteobridge W/m2
21:39 75.9 °F 71.8 °F 30.09 in Calm     87% 0 in meteobridge W/m2
21:44 75.7 °F 71.6 °F 30.09 in Calm     87% 0 in meteobridge W/m2
21:49 75.4 °F 71.6 °F 30.09 in Calm     88% 0 in meteobridge W/m2
21:54 75.2 °F 71.4 °F 30.09 in Calm     88% 0 in meteobridge W/m2
21:59 75 °F 71.2 °F 30.09 in Calm     88% 0 in meteobridge W/m2
22:04 74.8 °F 71.4 °F 30.09 in Calm     89% 0 in meteobridge W/m2
22:09 74.7 °F 71.2 °F 30.09 in Calm     89% 0 in meteobridge W/m2
22:14 74.5 °F 71.1 °F 30.09 in Calm     89% 0 in meteobridge W/m2
22:19 74.1 °F 70.7 °F 30.09 in Calm     89% 0 in meteobridge W/m2
22:24 74.1 °F 70.7 °F 30.09 in Calm     89% 0 in meteobridge W/m2
22:29 73.9 °F 70.5 °F 30.10 in Calm     89% 0 in meteobridge W/m2
22:34 73.8 °F 70.3 °F 30.10 in Calm     89% 0 in meteobridge W/m2
22:39 73.6 °F 70.5 °F 30.10 in Calm     90% 0 in meteobridge W/m2
22:44 73.4 °F 70.3 °F 30.10 in Calm     90% 0 in meteobridge W/m2
22:49 73.2 °F 70.2 °F 30.10 in Calm     90% 0 in meteobridge W/m2
22:54 73.2 °F 70.5 °F 30.10 in Calm     91% 0 in meteobridge W/m2
22:59 73 °F 70.3 °F 30.10 in Calm     91% 0 in meteobridge W/m2
23:04 72.9 °F 70.2 °F 30.10 in Calm     91% 0 in meteobridge W/m2
23:09 72.9 °F 70.2 °F 30.10 in Calm     91% 0 in meteobridge W/m2
23:14 72.7 °F 70 °F 30.10 in Calm     91% 0 in meteobridge W/m2
23:19 72.5 °F 70 °F 30.11 in Calm     92% 0 in meteobridge W/m2
23:24 72.3 °F 69.8 °F 30.11 in Calm     92% 0 in meteobridge W/m2
23:29 72.3 °F 69.8 °F 30.11 in Calm     92% 0 in meteobridge W/m2
23:34 72.1 °F 69.6 °F 30.11 in Calm     92% 0 in meteobridge W/m2
23:39 72.1 °F 69.6 °F 30.10 in Calm     92% 0 in meteobridge W/m2
23:44 72 °F 69.4 °F 30.10 in Calm     92% 0 in meteobridge W/m2
23:49 71.8 °F 69.6 °F 30.10 in Calm     93% 0 in meteobridge W/m2
23:54 71.8 °F 69.6 °F 30.10 in Calm     93% 0 in meteobridge W/m2
23:59 71.6 °F 69.4 °F 30.11 in Calm     93% 0 in meteobridge W/m2
EllijayWeather
Compliments of Weather Underground - 2.5 mb